sensor_id;sensor_type;location;lat;lon;timestamp;P1;durP1;ratioP1;P2;durP2;ratioP2
46222;SDS011;31943;51.410;7.564;2023-04-24T00:01:07;1.00;;;0.30;;
46222;SDS011;31943;51.410;7.564;2023-04-24T00:03:34;1.45;;;0.35;;
46222;SDS011;31943;51.410;7.564;2023-04-24T00:06:00;1.40;;;0.45;;
46222;SDS011;31943;51.410;7.564;2023-04-24T00:08:26;1.30;;;0.45;;
46222;SDS011;31943;51.410;7.564;2023-04-24T00:10:51;0.52;;;0.30;;
46222;SDS011;31943;51.410;7.564;2023-04-24T00:13:17;1.35;;;0.40;;
46222;SDS011;31943;51.410;7.564;2023-04-24T00:15:43;0.30;;;0.20;;
46222;SDS011;31943;51.410;7.564;2023-04-24T00:18:09;0.57;;;0.30;;
46222;SDS011;31943;51.410;7.564;2023-04-24T00:20:37;2.80;;;0.30;;
46222;SDS011;31943;51.410;7.564;2023-04-24T00:23:02;0.30;;;0.20;;
46222;SDS011;31943;51.410;7.564;2023-04-24T00:25:28;0.75;;;0.40;;
46222;SDS011;31943;51.410;7.564;2023-04-24T00:27:54;0.60;;;0.30;;
46222;SDS011;31943;51.410;7.564;2023-04-24T00:30:19;1.35;;;0.50;;
46222;SDS011;31943;51.410;7.564;2023-04-24T00:32:45;0.88;;;0.40;;
46222;SDS011;31943;51.410;7.564;2023-04-24T00:35:11;1.15;;;0.50;;
46222;SDS011;31943;51.410;7.564;2023-04-24T00:37:38;0.70;;;0.60;;
46222;SDS011;31943;51.410;7.564;2023-04-24T00:40:05;1.40;;;0.50;;
46222;SDS011;31943;51.410;7.564;2023-04-24T00:42:32;0.65;;;0.60;;
46222;SDS011;31943;51.410;7.564;2023-04-24T00:44:59;1.35;;;0.60;;
46222;SDS011;31943;51.410;7.564;2023-04-24T00:47:26;0.50;;;0.40;;
46222;SDS011;31943;51.410;7.564;2023-04-24T00:49:52;1.10;;;0.45;;
46222;SDS011;31943;51.410;7.564;2023-04-24T00:52:18;0.52;;;0.43;;
46222;SDS011;31943;51.410;7.564;2023-04-24T00:54:45;1.75;;;0.50;;
46222;SDS011;31943;51.410;7.564;2023-04-24T00:57:11;1.05;;;0.47;;
46222;SDS011;31943;51.410;7.564;2023-04-24T00:59:39;1.42;;;0.45;;
46222;SDS011;31943;51.410;7.564;2023-04-24T01:02:06;0.73;;;0.50;;
46222;SDS011;31943;51.410;7.564;2023-04-24T01:04:32;0.63;;;0.47;;
46222;SDS011;31943;51.410;7.564;2023-04-24T01:06:58;1.58;;;0.50;;
46222;SDS011;31943;51.410;7.564;2023-04-24T01:09:24;0.65;;;0.52;;
46222;SDS011;31943;51.410;7.564;2023-04-24T01:11:51;1.50;;;0.50;;
46222;SDS011;31943;51.410;7.564;2023-04-24T01:14:17;1.55;;;0.63;;
46222;SDS011;31943;51.410;7.564;2023-04-24T01:16:43;1.23;;;0.40;;
46222;SDS011;31943;51.410;7.564;2023-04-24T01:19:10;0.95;;;0.30;;
46222;SDS011;31943;51.410;7.564;2023-04-24T01:21:37;0.57;;;0.45;;
46222;SDS011;31943;51.410;7.564;2023-04-24T01:24:05;2.20;;;0.52;;
46222;SDS011;31943;51.410;7.564;2023-04-24T01:26:32;2.10;;;0.47;;
46222;SDS011;31943;51.410;7.564;2023-04-24T01:28:58;1.38;;;0.47;;
46222;SDS011;31943;51.410;7.564;2023-04-24T01:31:25;1.23;;;0.30;;
46222;SDS011;31943;51.410;7.564;2023-04-24T01:33:51;0.77;;;0.50;;
46222;SDS011;31943;51.410;7.564;2023-04-24T01:36:17;0.82;;;0.45;;
46222;SDS011;31943;51.410;7.564;2023-04-24T01:38:44;0.93;;;0.50;;
46222;SDS011;31943;51.410;7.564;2023-04-24T01:41:11;1.08;;;0.57;;
46222;SDS011;31943;51.410;7.564;2023-04-24T01:43:37;0.60;;;0.50;;
46222;SDS011;31943;51.410;7.564;2023-04-24T01:46:04;1.23;;;0.57;;
46222;SDS011;31943;51.410;7.564;2023-04-24T01:48:31;0.55;;;0.40;;
46222;SDS011;31943;51.410;7.564;2023-04-24T01:50:56;1.05;;;0.40;;
46222;SDS011;31943;51.410;7.564;2023-04-24T01:53:22;1.33;;;0.50;;
46222;SDS011;31943;51.410;7.564;2023-04-24T01:55:48;1.00;;;0.57;;
46222;SDS011;31943;51.410;7.564;2023-04-24T01:58:16;2.13;;;0.60;;
46222;SDS011;31943;51.410;7.564;2023-04-24T02:00:42;0.88;;;0.60;;
46222;SDS011;31943;51.410;7.564;2023-04-24T02:03:07;1.52;;;0.60;;
46222;SDS011;31943;51.410;7.564;2023-04-24T02:05:33;1.40;;;0.65;;
46222;SDS011;31943;51.410;7.564;2023-04-24T02:07:59;1.00;;;0.60;;
46222;SDS011;31943;51.410;7.564;2023-04-24T02:10:24;1.30;;;0.80;;
46222;SDS011;31943;51.410;7.564;2023-04-24T02:12:51;1.20;;;0.77;;
46222;SDS011;31943;51.410;7.564;2023-04-24T02:15:20;2.38;;;0.95;;
46222;SDS011;31943;51.410;7.564;2023-04-24T02:17:46;2.00;;;1.20;;
46222;SDS011;31943;51.410;7.564;2023-04-24T02:20:11;1.05;;;0.95;;
46222;SDS011;31943;51.410;7.564;2023-04-24T02:22:37;2.35;;;1.02;;
46222;SDS011;31943;51.410;7.564;2023-04-24T02:25:03;1.02;;;0.95;;
46222;SDS011;31943;51.410;7.564;2023-04-24T02:27:29;2.70;;;1.30;;
46222;SDS011;31943;51.410;7.564;2023-04-24T02:29:55;1.73;;;1.20;;
46222;SDS011;31943;51.410;7.564;2023-04-24T02:32:22;1.73;;;1.40;;
46222;SDS011;31943;51.410;7.564;2023-04-24T02:34:48;1.88;;;1.17;;
46222;SDS011;31943;51.410;7.564;2023-04-24T02:37:13;1.88;;;1.25;;
46222;SDS011;31943;51.410;7.564;2023-04-24T02:39:39;1.67;;;1.35;;
46222;SDS011;31943;51.410;7.564;2023-04-24T02:42:05;2.90;;;1.50;;
46222;SDS011;31943;51.410;7.564;2023-04-24T02:44:31;2.30;;;1.40;;
46222;SDS011;31943;51.410;7.564;2023-04-24T02:46:56;2.13;;;1.60;;
46222;SDS011;31943;51.410;7.564;2023-04-24T02:49:23;3.58;;;1.50;;
46222;SDS011;31943;51.410;7.564;2023-04-24T02:51:49;3.20;;;1.67;;
46222;SDS011;31943;51.410;7.564;2023-04-24T02:54:15;3.08;;;1.48;;
46222;SDS011;31943;51.410;7.564;2023-04-24T02:56:40;2.35;;;1.70;;
46222;SDS011;31943;51.410;7.564;2023-04-24T02:59:06;1.98;;;1.45;;
46222;SDS011;31943;51.410;7.564;2023-04-24T03:01:32;3.70;;;2.05;;
46222;SDS011;31943;51.410;7.564;2023-04-24T03:03:58;4.65;;;2.60;;
46222;SDS011;31943;51.410;7.564;2023-04-24T03:06:25;3.20;;;2.55;;
46222;SDS011;31943;51.410;7.564;2023-04-24T03:08:51;6.38;;;3.10;;
46222;SDS011;31943;51.410;7.564;2023-04-24T03:11:16;3.35;;;2.47;;
46222;SDS011;31943;51.410;7.564;2023-04-24T03:13:42;4.47;;;3.53;;
46222;SDS011;31943;51.410;7.564;2023-04-24T03:16:08;6.18;;;4.40;;
46222;SDS011;31943;51.410;7.564;2023-04-24T03:18:34;6.38;;;5.60;;
46222;SDS011;31943;51.410;7.564;2023-04-24T03:21:00;6.70;;;5.97;;
46222;SDS011;31943;51.410;7.564;2023-04-24T03:23:29;6.03;;;5.45;;
46222;SDS011;31943;51.410;7.564;2023-04-24T03:25:54;7.80;;;6.00;;
46222;SDS011;31943;51.410;7.564;2023-04-24T03:28:20;6.13;;;5.53;;
46222;SDS011;31943;51.410;7.564;2023-04-24T03:30:46;8.82;;;6.97;;
46222;SDS011;31943;51.410;7.564;2023-04-24T03:33:11;8.35;;;7.38;;
46222;SDS011;31943;51.410;7.564;2023-04-24T03:35:37;8.23;;;7.43;;
46222;SDS011;31943;51.410;7.564;2023-04-24T03:38:03;10.00;;;7.65;;
46222;SDS011;31943;51.410;7.564;2023-04-24T03:40:31;9.52;;;7.45;;
46222;SDS011;31943;51.410;7.564;2023-04-24T03:42:56;10.82;;;8.05;;
46222;SDS011;31943;51.410;7.564;2023-04-24T03:45:23;9.00;;;8.00;;
46222;SDS011;31943;51.410;7.564;2023-04-24T03:47:49;8.30;;;7.35;;
46222;SDS011;31943;51.410;7.564;2023-04-24T03:50:14;8.23;;;7.13;;
46222;SDS011;31943;51.410;7.564;2023-04-24T03:52:40;10.55;;;7.80;;
46222;SDS011;31943;51.410;7.564;2023-04-24T03:55:06;9.50;;;7.57;;
46222;SDS011;31943;51.410;7.564;2023-04-24T03:57:34;9.50;;;7.78;;
46222;SDS011;31943;51.410;7.564;2023-04-24T04:00:00;11.32;;;8.30;;
46222;SDS011;31943;51.410;7.564;2023-04-24T04:02:26;9.65;;;8.27;;
46222;SDS011;31943;51.410;7.564;2023-04-24T04:04:52;11.00;;;8.57;;
46222;SDS011;31943;51.410;7.564;2023-04-24T04:07:17;8.90;;;7.88;;
46222;SDS011;31943;51.410;7.564;2023-04-24T04:09:44;9.52;;;6.97;;
46222;SDS011;31943;51.410;7.564;2023-04-24T04:12:10;9.20;;;7.30;;
46222;SDS011;31943;51.410;7.564;2023-04-24T04:14:38;8.70;;;6.95;;
46222;SDS011;31943;51.410;7.564;2023-04-24T04:17:04;8.70;;;7.72;;
46222;SDS011;31943;51.410;7.564;2023-04-24T04:19:31;9.85;;;7.07;;
46222;SDS011;31943;51.410;7.564;2023-04-24T04:21:56;9.23;;;7.38;;
46222;SDS011;31943;51.410;7.564;2023-04-24T04:24:22;8.20;;;7.38;;
46222;SDS011;31943;51.410;7.564;2023-04-24T04:26:49;8.65;;;7.20;;
46222;SDS011;31943;51.410;7.564;2023-04-24T04:29:15;7.65;;;6.85;;
46222;SDS011;31943;51.410;7.564;2023-04-24T04:31:43;8.05;;;6.90;;
46222;SDS011;31943;51.410;7.564;2023-04-24T04:34:09;9.48;;;7.28;;
46222;SDS011;31943;51.410;7.564;2023-04-24T04:36:36;10.35;;;7.32;;
46222;SDS011;31943;51.410;7.564;2023-04-24T04:39:03;8.48;;;7.57;;
46222;SDS011;31943;51.410;7.564;2023-04-24T04:41:29;7.45;;;6.45;;
46222;SDS011;31943;51.410;7.564;2023-04-24T04:43:55;8.48;;;7.10;;
46222;SDS011;31943;51.410;7.564;2023-04-24T04:46:20;8.35;;;6.63;;
46222;SDS011;31943;51.410;7.564;2023-04-24T04:48:50;7.55;;;6.38;;
46222;SDS011;31943;51.410;7.564;2023-04-24T04:51:17;7.68;;;6.88;;
46222;SDS011;31943;51.410;7.564;2023-04-24T04:53:43;8.63;;;7.28;;
46222;SDS011;31943;51.410;7.564;2023-04-24T04:56:08;9.80;;;7.10;;
46222;SDS011;31943;51.410;7.564;2023-04-24T04:58:34;7.93;;;7.13;;
46222;SDS011;31943;51.410;7.564;2023-04-24T05:01:00;8.30;;;6.30;;
46222;SDS011;31943;51.410;7.564;2023-04-24T05:03:25;10.68;;;7.93;;
46222;SDS011;31943;51.410;7.564;2023-04-24T05:05:52;9.75;;;7.25;;
46222;SDS011;31943;51.410;7.564;2023-04-24T05:08:18;10.77;;;8.25;;
46222;SDS011;31943;51.410;7.564;2023-04-24T05:10:44;12.15;;;7.90;;
46222;SDS011;31943;51.410;7.564;2023-04-24T05:13:09;9.35;;;8.02;;
46222;SDS011;31943;51.410;7.564;2023-04-24T05:15:35;8.38;;;7.45;;
46222;SDS011;31943;51.410;7.564;2023-04-24T05:18:02;9.88;;;7.30;;
46222;SDS011;31943;51.410;7.564;2023-04-24T05:20:29;8.68;;;7.00;;
46222;SDS011;31943;51.410;7.564;2023-04-24T05:22:57;8.80;;;7.05;;
46222;SDS011;31943;51.410;7.564;2023-04-24T05:25:23;9.10;;;7.35;;
46222;SDS011;31943;51.410;7.564;2023-04-24T05:27:48;7.40;;;6.65;;
46222;SDS011;31943;51.410;7.564;2023-04-24T05:30:14;9.35;;;6.43;;
46222;SDS011;31943;51.410;7.564;2023-04-24T05:32:40;8.35;;;6.80;;
46222;SDS011;31943;51.410;7.564;2023-04-24T05:35:06;6.93;;;5.85;;
46222;SDS011;31943;51.410;7.564;2023-04-24T05:37:32;7.68;;;5.82;;
46222;SDS011;31943;51.410;7.564;2023-04-24T05:39:59;8.82;;;6.03;;
46222;SDS011;31943;51.410;7.564;2023-04-24T05:42:26;6.95;;;6.25;;
46222;SDS011;31943;51.410;7.564;2023-04-24T05:44:53;11.00;;;6.13;;
46222;SDS011;31943;51.410;7.564;2023-04-24T05:47:18;5.95;;;5.35;;
46222;SDS011;31943;51.410;7.564;2023-04-24T05:49:44;7.03;;;6.25;;
46222;SDS011;31943;51.410;7.564;2023-04-24T05:52:10;8.27;;;5.95;;
46222;SDS011;31943;51.410;7.564;2023-04-24T05:54:35;7.15;;;5.57;;
46222;SDS011;31943;51.410;7.564;2023-04-24T05:57:02;5.28;;;4.53;;
46222;SDS011;31943;51.410;7.564;2023-04-24T05:59:28;6.97;;;5.00;;
46222;SDS011;31943;51.410;7.564;2023-04-24T06:01:54;5.55;;;4.82;;
46222;SDS011;31943;51.410;7.564;2023-04-24T06:04:20;6.72;;;5.00;;
46222;SDS011;31943;51.410;7.564;2023-04-24T06:06:46;6.32;;;5.20;;
46222;SDS011;31943;51.410;7.564;2023-04-24T06:09:12;5.80;;;5.22;;
46222;SDS011;31943;51.410;7.564;2023-04-24T06:11:37;6.63;;;5.22;;
46222;SDS011;31943;51.410;7.564;2023-04-24T06:14:06;5.57;;;4.95;;
46222;SDS011;31943;51.410;7.564;2023-04-24T06:16:31;6.55;;;5.30;;
46222;SDS011;31943;51.410;7.564;2023-04-24T06:18:57;7.90;;;5.18;;
46222;SDS011;31943;51.410;7.564;2023-04-24T06:21:23;5.63;;;4.90;;
46222;SDS011;31943;51.410;7.564;2023-04-24T06:23:51;6.05;;;4.80;;
46222;SDS011;31943;51.410;7.564;2023-04-24T06:26:17;7.05;;;4.57;;
46222;SDS011;31943;51.410;7.564;2023-04-24T06:28:42;6.20;;;4.88;;
46222;SDS011;31943;51.410;7.564;2023-04-24T06:31:10;7.40;;;4.78;;
46222;SDS011;31943;51.410;7.564;2023-04-24T06:33:35;4.85;;;4.30;;
46222;SDS011;31943;51.410;7.564;2023-04-24T06:36:01;4.53;;;4.00;;
46222;SDS011;31943;51.410;7.564;2023-04-24T06:38:27;5.28;;;4.65;;
46222;SDS011;31943;51.410;7.564;2023-04-24T06:40:54;6.10;;;3.85;;
46222;SDS011;31943;51.410;7.564;2023-04-24T06:43:19;3.90;;;3.40;;
46222;SDS011;31943;51.410;7.564;2023-04-24T06:45:45;4.00;;;3.30;;
46222;SDS011;31943;51.410;7.564;2023-04-24T06:48:12;4.65;;;3.60;;
46222;SDS011;31943;51.410;7.564;2023-04-24T06:50:38;5.30;;;3.33;;
46222;SDS011;31943;51.410;7.564;2023-04-24T06:53:04;3.83;;;2.85;;
46222;SDS011;31943;51.410;7.564;2023-04-24T06:55:30;3.50;;;3.20;;
46222;SDS011;31943;51.410;7.564;2023-04-24T06:57:55;4.05;;;2.78;;
46222;SDS011;31943;51.410;7.564;2023-04-24T07:00:21;3.42;;;2.67;;
46222;SDS011;31943;51.410;7.564;2023-04-24T07:02:47;3.85;;;2.95;;
46222;SDS011;31943;51.410;7.564;2023-04-24T07:05:14;3.08;;;2.78;;
46222;SDS011;31943;51.410;7.564;2023-04-24T07:07:40;3.65;;;3.10;;
46222;SDS011;31943;51.410;7.564;2023-04-24T07:10:06;4.43;;;3.05;;
46222;SDS011;31943;51.410;7.564;2023-04-24T07:12:33;3.50;;;3.20;;
46222;SDS011;31943;51.410;7.564;2023-04-24T07:15:00;4.53;;;3.33;;
46222;SDS011;31943;51.410;7.564;2023-04-24T07:17:25;4.00;;;3.40;;
46222;SDS011;31943;51.410;7.564;2023-04-24T07:19:51;4.65;;;3.60;;
46222;SDS011;31943;51.410;7.564;2023-04-24T07:22:19;4.05;;;3.58;;
46222;SDS011;31943;51.410;7.564;2023-04-24T07:24:44;5.43;;;3.60;;
46222;SDS011;31943;51.410;7.564;2023-04-24T07:27:10;4.05;;;3.65;;
46222;SDS011;31943;51.410;7.564;2023-04-24T07:29:38;4.68;;;3.65;;
46222;SDS011;31943;51.410;7.564;2023-04-24T07:32:04;5.38;;;3.63;;
46222;SDS011;31943;51.410;7.564;2023-04-24T07:34:31;5.28;;;4.20;;
46222;SDS011;31943;51.410;7.564;2023-04-24T07:36:57;4.40;;;3.85;;
46222;SDS011;31943;51.410;7.564;2023-04-24T07:39:26;4.28;;;3.30;;
46222;SDS011;31943;51.410;7.564;2023-04-24T07:41:52;4.53;;;2.78;;
46222;SDS011;31943;51.410;7.564;2023-04-24T07:44:18;3.00;;;2.53;;
46222;SDS011;31943;51.410;7.564;2023-04-24T07:46:43;3.50;;;2.40;;
46222;SDS011;31943;51.410;7.564;2023-04-24T07:49:10;2.97;;;2.30;;
46222;SDS011;31943;51.410;7.564;2023-04-24T07:51:36;2.45;;;2.17;;
46222;SDS011;31943;51.410;7.564;2023-04-24T07:54:01;2.50;;;1.90;;
46222;SDS011;31943;51.410;7.564;2023-04-24T07:56:29;3.65;;;1.95;;
46222;SDS011;31943;51.410;7.564;2023-04-24T07:58:54;3.25;;;2.20;;
46222;SDS011;31943;51.410;7.564;2023-04-24T08:01:20;2.65;;;2.00;;
46222;SDS011;31943;51.410;7.564;2023-04-24T08:03:45;1.70;;;1.38;;
46222;SDS011;31943;51.410;7.564;2023-04-24T08:06:11;1.58;;;1.48;;
46222;SDS011;31943;51.410;7.564;2023-04-24T08:08:37;1.52;;;1.33;;
46222;SDS011;31943;51.410;7.564;2023-04-24T08:11:02;1.17;;;0.93;;
46222;SDS011;31943;51.410;7.564;2023-04-24T08:13:30;2.03;;;1.10;;
46222;SDS011;31943;51.410;7.564;2023-04-24T08:15:56;1.23;;;0.80;;
46222;SDS011;31943;51.410;7.564;2023-04-24T08:18:21;1.17;;;0.60;;
46222;SDS011;31943;51.410;7.564;2023-04-24T08:20:47;1.95;;;0.65;;
46222;SDS011;31943;51.410;7.564;2023-04-24T08:23:13;1.55;;;0.50;;
46222;SDS011;31943;51.410;7.564;2023-04-24T08:25:39;0.85;;;0.52;;
46222;SDS011;31943;51.410;7.564;2023-04-24T08:28:05;1.10;;;0.80;;
46222;SDS011;31943;51.410;7.564;2023-04-24T08:30:38;1.08;;;0.70;;
46222;SDS011;31943;51.410;7.564;2023-04-24T08:33:03;1.00;;;0.60;;
46222;SDS011;31943;51.410;7.564;2023-04-24T08:35:29;0.85;;;0.50;;
46222;SDS011;31943;51.410;7.564;2023-04-24T08:37:55;1.20;;;0.60;;
46222;SDS011;31943;51.410;7.564;2023-04-24T08:40:22;0.50;;;0.40;;
46222;SDS011;31943;51.410;7.564;2023-04-24T08:45:19;1.33;;;0.50;;
46222;SDS011;31943;51.410;7.564;2023-04-24T08:47:46;0.40;;;0.40;;
46222;SDS011;31943;51.410;7.564;2023-04-24T08:50:13;0.32;;;0.20;;
46222;SDS011;31943;51.410;7.564;2023-04-24T08:52:39;0.10;;;0.10;;
46222;SDS011;31943;51.410;7.564;2023-04-24T08:55:07;0.98;;;0.28;;
46222;SDS011;31943;51.410;7.564;2023-04-24T08:57:33;0.30;;;0.20;;
46222;SDS011;31943;51.410;7.564;2023-04-24T08:59:58;0.52;;;0.30;;
46222;SDS011;31943;51.410;7.564;2023-04-24T09:02:25;0.20;;;0.20;;
46222;SDS011;31943;51.410;7.564;2023-04-24T09:04:54;2.40;;;0.40;;
46222;SDS011;31943;51.410;7.564;2023-04-24T09:07:21;0.52;;;0.30;;
46222;SDS011;31943;51.410;7.564;2023-04-24T09:09:47;0.17;;;0.15;;
46222;SDS011;31943;51.410;7.564;2023-04-24T09:12:13;1.02;;;0.22;;
46222;SDS011;31943;51.410;7.564;2023-04-24T09:14:39;0.35;;;0.30;;
46222;SDS011;31943;51.410;7.564;2023-04-24T09:17:05;0.45;;;0.20;;
46222;SDS011;31943;51.410;7.564;2023-04-24T09:19:31;0.38;;;0.20;;
46222;SDS011;31943;51.410;7.564;2023-04-24T09:21:59;1.27;;;0.30;;
46222;SDS011;31943;51.410;7.564;2023-04-24T09:24:24;0.77;;;0.20;;
46222;SDS011;31943;51.410;7.564;2023-04-24T09:26:55;0.88;;;0.17;;
46222;SDS011;31943;51.410;7.564;2023-04-24T09:29:22;1.25;;;0.47;;
46222;SDS011;31943;51.410;7.564;2023-04-24T09:31:47;1.30;;;0.25;;
46222;SDS011;31943;51.410;7.564;2023-04-24T09:34:13;1.33;;;0.30;;
46222;SDS011;31943;51.410;7.564;2023-04-24T09:36:47;0.88;;;0.35;;
46222;SDS011;31943;51.410;7.564;2023-04-24T09:39:15;0.43;;;0.30;;
46222;SDS011;31943;51.410;7.564;2023-04-24T09:41:45;0.60;;;0.40;;
46222;SDS011;31943;51.410;7.564;2023-04-24T09:44:13;0.70;;;0.38;;
46222;SDS011;31943;51.410;7.564;2023-04-24T09:46:41;1.08;;;0.30;;
46222;SDS011;31943;51.410;7.564;2023-04-24T09:49:09;0.98;;;0.50;;
46222;SDS011;31943;51.410;7.564;2023-04-24T09:51:37;1.08;;;0.38;;
46222;SDS011;31943;51.410;7.564;2023-04-24T09:54:04;0.40;;;0.40;;
46222;SDS011;31943;51.410;7.564;2023-04-24T09:56:38;1.30;;;0.68;;
46222;SDS011;31943;51.410;7.564;2023-04-24T09:59:08;1.30;;;0.43;;
46222;SDS011;31943;51.410;7.564;2023-04-24T10:01:33;1.27;;;0.52;;
46222;SDS011;31943;51.410;7.564;2023-04-24T10:03:59;0.65;;;0.40;;
46222;SDS011;31943;51.410;7.564;2023-04-24T10:06:29;0.90;;;0.47;;
46222;SDS011;31943;51.410;7.564;2023-04-24T10:08:59;1.90;;;0.70;;
46222;SDS011;31943;51.410;7.564;2023-04-24T10:11:25;1.73;;;0.52;;
46222;SDS011;31943;51.410;7.564;2023-04-24T10:13:53;3.47;;;0.80;;
46222;SDS011;31943;51.410;7.564;2023-04-24T10:16:19;1.23;;;0.75;;
46222;SDS011;31943;51.410;7.564;2023-04-24T10:18:47;1.85;;;1.55;;
46222;SDS011;31943;51.410;7.564;2023-04-24T10:21:13;2.72;;;2.05;;
46222;SDS011;31943;51.410;7.564;2023-04-24T10:23:39;6.10;;;4.78;;
46222;SDS011;31943;51.410;7.564;2023-04-24T10:26:07;5.47;;;4.18;;
46222;SDS011;31943;51.410;7.564;2023-04-24T10:28:34;4.88;;;3.10;;
46222;SDS011;31943;51.410;7.564;2023-04-24T10:31:03;3.33;;;1.85;;
46222;SDS011;31943;51.410;7.564;2023-04-24T10:33:29;5.90;;;2.42;;
46222;SDS011;31943;51.410;7.564;2023-04-24T10:35:56;4.43;;;3.35;;
46222;SDS011;31943;51.410;7.564;2023-04-24T10:38:24;4.40;;;2.80;;
46222;SDS011;31943;51.410;7.564;2023-04-24T10:40:50;4.60;;;3.78;;
46222;SDS011;31943;51.410;7.564;2023-04-24T10:43:16;6.30;;;4.43;;
46222;SDS011;31943;51.410;7.564;2023-04-24T10:45:59;4.50;;;3.10;;
46222;SDS011;31943;51.410;7.564;2023-04-24T10:48:27;6.47;;;4.15;;
46222;SDS011;31943;51.410;7.564;2023-04-24T10:50:53;5.43;;;3.85;;
46222;SDS011;31943;51.410;7.564;2023-04-24T10:53:20;5.85;;;4.30;;
46222;SDS011;31943;51.410;7.564;2023-04-24T10:55:49;4.85;;;4.03;;
46222;SDS011;31943;51.410;7.564;2023-04-24T10:58:16;3.63;;;2.83;;
46222;SDS011;31943;51.410;7.564;2023-04-24T11:00:42;3.75;;;2.30;;
46222;SDS011;31943;51.410;7.564;2023-04-24T11:03:23;2.53;;;2.17;;
46222;SDS011;31943;51.410;7.564;2023-04-24T11:05:53;3.60;;;1.98;;
46222;SDS011;31943;51.410;7.564;2023-04-24T11:08:22;2.92;;;2.00;;
46222;SDS011;31943;51.410;7.564;2023-04-24T11:10:54;5.05;;;2.33;;
46222;SDS011;31943;51.410;7.564;2023-04-24T11:13:22;4.72;;;2.53;;
46222;SDS011;31943;51.410;7.564;2023-04-24T11:18:38;6.95;;;4.75;;
46222;SDS011;31943;51.410;7.564;2023-04-24T11:21:11;7.05;;;4.10;;
46222;SDS011;31943;51.410;7.564;2023-04-24T11:23:37;6.70;;;4.18;;
46222;SDS011;31943;51.410;7.564;2023-04-24T11:26:12;6.55;;;3.85;;
46222;SDS011;31943;51.410;7.564;2023-04-24T11:28:48;6.57;;;3.95;;
46222;SDS011;31943;51.410;7.564;2023-04-24T11:34:05;5.93;;;3.63;;
46222;SDS011;31943;51.410;7.564;2023-04-24T11:36:37;6.97;;;3.55;;
46222;SDS011;31943;51.410;7.564;2023-04-24T11:39:04;7.78;;;4.80;;
46222;SDS011;31943;51.410;7.564;2023-04-24T11:41:30;8.30;;;3.88;;
46222;SDS011;31943;51.410;7.564;2023-04-24T11:43:55;9.50;;;3.45;;
46222;SDS011;31943;51.410;7.564;2023-04-24T11:46:22;5.63;;;3.20;;
46222;SDS011;31943;51.410;7.564;2023-04-24T11:48:48;6.63;;;3.58;;
46222;SDS011;31943;51.410;7.564;2023-04-24T11:51:13;7.90;;;3.28;;
46222;SDS011;31943;51.410;7.564;2023-04-24T11:53:41;7.82;;;3.75;;
46222;SDS011;31943;51.410;7.564;2023-04-24T11:56:08;7.00;;;3.40;;
46222;SDS011;31943;51.410;7.564;2023-04-24T11:58:35;7.95;;;3.88;;
46222;SDS011;31943;51.410;7.564;2023-04-24T12:01:03;8.10;;;4.43;;
46222;SDS011;31943;51.410;7.564;2023-04-24T12:03:29;9.57;;;4.45;;
46222;SDS011;31943;51.410;7.564;2023-04-24T12:06:04;8.75;;;4.40;;
46222;SDS011;31943;51.410;7.564;2023-04-24T12:08:30;7.82;;;4.90;;
46222;SDS011;31943;51.410;7.564;2023-04-24T12:10:57;8.15;;;4.30;;
46222;SDS011;31943;51.410;7.564;2023-04-24T12:13:25;7.40;;;4.68;;
46222;SDS011;31943;51.410;7.564;2023-04-24T12:15:50;8.63;;;5.18;;
46222;SDS011;31943;51.410;7.564;2023-04-24T12:18:16;14.95;;;6.35;;
46222;SDS011;31943;51.410;7.564;2023-04-24T12:20:42;11.00;;;5.70;;
46222;SDS011;31943;51.410;7.564;2023-04-24T12:23:08;14.45;;;6.00;;
46222;SDS011;31943;51.410;7.564;2023-04-24T12:25:33;15.63;;;5.03;;
46222;SDS011;31943;51.410;7.564;2023-04-24T12:28:10;10.77;;;5.05;;
46222;SDS011;31943;51.410;7.564;2023-04-24T12:30:39;8.90;;;5.35;;
46222;SDS011;31943;51.410;7.564;2023-04-24T12:33:06;9.00;;;4.13;;
46222;SDS011;31943;51.410;7.564;2023-04-24T12:35:32;9.50;;;4.63;;
46222;SDS011;31943;51.410;7.564;2023-04-24T12:38:04;7.63;;;3.75;;
46222;SDS011;31943;51.410;7.564;2023-04-24T12:40:30;8.38;;;3.92;;
46222;SDS011;31943;51.410;7.564;2023-04-24T12:42:56;12.13;;;4.18;;
46222;SDS011;31943;51.410;7.564;2023-04-24T12:45:24;9.43;;;4.47;;
46222;SDS011;31943;51.410;7.564;2023-04-24T12:47:49;8.68;;;3.80;;
46222;SDS011;31943;51.410;7.564;2023-04-24T12:50:16;11.82;;;4.90;;
46222;SDS011;31943;51.410;7.564;2023-04-24T12:52:41;8.20;;;4.45;;
46222;SDS011;31943;51.410;7.564;2023-04-24T12:55:08;11.35;;;4.95;;
46222;SDS011;31943;51.410;7.564;2023-04-24T12:57:35;12.55;;;4.47;;
46222;SDS011;31943;51.410;7.564;2023-04-24T13:00:03;8.52;;;4.43;;
46222;SDS011;31943;51.410;7.564;2023-04-24T13:02:32;10.68;;;4.32;;
46222;SDS011;31943;51.410;7.564;2023-04-24T13:04:59;10.57;;;4.13;;
46222;SDS011;31943;51.410;7.564;2023-04-24T13:07:25;10.35;;;4.40;;
46222;SDS011;31943;51.410;7.564;2023-04-24T13:09:52;6.10;;;3.78;;
46222;SDS011;31943;51.410;7.564;2023-04-24T13:12:19;11.57;;;4.78;;
46222;SDS011;31943;51.410;7.564;2023-04-24T13:14:45;11.82;;;4.65;;
46222;SDS011;31943;51.410;7.564;2023-04-24T13:17:12;9.25;;;4.70;;
46222;SDS011;31943;51.410;7.564;2023-04-24T13:19:41;12.98;;;4.85;;
46222;SDS011;31943;51.410;7.564;2023-04-24T13:22:09;7.68;;;3.55;;
46222;SDS011;31943;51.410;7.564;2023-04-24T13:24:36;15.98;;;8.50;;
46222;SDS011;31943;51.410;7.564;2023-04-24T13:27:02;9.50;;;3.10;;
46222;SDS011;31943;51.410;7.564;2023-04-24T13:29:28;7.75;;;3.60;;
46222;SDS011;31943;51.410;7.564;2023-04-24T13:31:54;11.18;;;3.67;;
46222;SDS011;31943;51.410;7.564;2023-04-24T13:34:20;5.65;;;2.70;;
46222;SDS011;31943;51.410;7.564;2023-04-24T13:36:49;6.53;;;2.55;;
46222;SDS011;31943;51.410;7.564;2023-04-24T13:39:15;6.55;;;2.95;;
46222;SDS011;31943;51.410;7.564;2023-04-24T13:41:41;5.93;;;2.83;;
46222;SDS011;31943;51.410;7.564;2023-04-24T13:44:06;6.25;;;2.50;;
46222;SDS011;31943;51.410;7.564;2023-04-24T13:46:32;4.43;;;2.80;;
46222;SDS011;31943;51.410;7.564;2023-04-24T13:48:58;4.13;;;2.72;;
46222;SDS011;31943;51.410;7.564;2023-04-24T13:51:25;5.63;;;2.40;;
46222;SDS011;31943;51.410;7.564;2023-04-24T13:53:52;3.13;;;2.15;;
46222;SDS011;31943;51.410;7.564;2023-04-24T13:56:18;4.93;;;2.33;;
46222;SDS011;31943;51.410;7.564;2023-04-24T13:58:43;4.07;;;1.92;;
46222;SDS011;31943;51.410;7.564;2023-04-24T14:01:09;4.68;;;2.13;;
46222;SDS011;31943;51.410;7.564;2023-04-24T14:03:38;3.95;;;2.15;;
46222;SDS011;31943;51.410;7.564;2023-04-24T14:06:03;3.55;;;1.70;;
46222;SDS011;31943;51.410;7.564;2023-04-24T14:08:29;4.93;;;1.75;;
46222;SDS011;31943;51.410;7.564;2023-04-24T14:10:57;5.65;;;1.90;;
46222;SDS011;31943;51.410;7.564;2023-04-24T14:13:24;7.70;;;2.40;;
46222;SDS011;31943;51.410;7.564;2023-04-24T14:15:50;5.30;;;2.10;;
46222;SDS011;31943;51.410;7.564;2023-04-24T14:18:17;6.88;;;2.35;;
46222;SDS011;31943;51.410;7.564;2023-04-24T14:20:42;4.38;;;1.85;;
46222;SDS011;31943;51.410;7.564;2023-04-24T14:23:09;3.92;;;1.70;;
46222;SDS011;31943;51.410;7.564;2023-04-24T14:25:35;7.20;;;1.80;;
46222;SDS011;31943;51.410;7.564;2023-04-24T14:28:02;6.20;;;2.20;;
46222;SDS011;31943;51.410;7.564;2023-04-24T14:30:28;5.03;;;1.40;;
46222;SDS011;31943;51.410;7.564;2023-04-24T14:32:53;3.72;;;1.65;;
46222;SDS011;31943;51.410;7.564;2023-04-24T14:35:19;2.55;;;1.55;;
46222;SDS011;31943;51.410;7.564;2023-04-24T14:37:45;3.38;;;1.30;;
46222;SDS011;31943;51.410;7.564;2023-04-24T14:40:12;6.18;;;1.65;;
46222;SDS011;31943;51.410;7.564;2023-04-24T14:42:38;3.78;;;1.30;;
46222;SDS011;31943;51.410;7.564;2023-04-24T14:45:05;3.72;;;1.70;;
46222;SDS011;31943;51.410;7.564;2023-04-24T14:47:32;3.65;;;2.10;;
46222;SDS011;31943;51.410;7.564;2023-04-24T14:49:58;4.50;;;1.77;;